Monatstabelle

Bitte in den Auwahlmenüs den gewünschte Zeiraum wählen und die Schaltfläche "Anfrage absenden" betätigen. Beginn der Aufzeichnung ist 2007 - Dezember. Vor diesem Zeitraum sind keine Daten verfügbar.

2018 - Oktober

 

Datum Temperatur (°C) Luftdruck (hPa) Luftfeuchte (%) Regen
(l/m²)
Wind (km/h)
avg: min: max: avg: min: max: avg: min: max: avg: max:
05.10.2018 15,0 14,0 15,6 1019,7 1018,4 1019,9 59 56 61 1,1 12,5 17,7
06.10.2018 18,4 13,5 24,4 1013,6 1011,4 1018,4 65 47 73 0,0 10,5 19,2
07.10.2018 17,4 15,2 21,5 1013,6 1009,5 1016,2 79 63 87 0,4 1,6 12,9
08.10.2018 14,0 10,1 19,7 1019,7 1016,1 1021,2 81 65 88 0,0 3,6 10,1
09.10.2018 15,4 7,9 25,1 1021,3 1019,8 1022,4 76 54 90 0,0 1,8 10,9
10.10.2018 16,5 11,6 24,9 1021,6 1020,7 1023,1 73 51 90 0,0 6,1 12,9
11.10.2018 18,3 12,3 24,8 1020,4 1019,2 1021,8 65 45 81 0,0 8,8 15,9
12.10.2018 17,4 12,3 25,0 1024,0 1020,6 1024,8 63 45 83 0,0 5,7 13,5
13.10.2018 16,9 10,8 24,3 1023,6 1022,1 1025,9 65 44 82 0,0 6,3 14,5
14.10.2018 14,3 9,4 23,1 1019,8 1018,8 1022,2 62 38 78 0,0 6,5 18,0
15.10.2018 13,0 7,2 21,3 1018,6 1017,9 1020,6 61 42 73 0,0 6,3 13,2
16.10.2018 16,2 10,0 24,8 1018,1 1016,8 1019,0 64 44 82 0,0 6,1 15,8
17.10.2018 13,3 8,0 15,3 1017,5 1016,8 1018,9 83 75 88 0,7 1,3 7,7
18.10.2018 14,4 10,7 20,4 1016,8 1015,5 1018,1 80 66 87 0,0 2,3 11,3
19.10.2018 12,5 8,9 19,8 1019,6 1017,5 1020,9 80 60 90 0,0 3,6 13,7
20.10.2018 13,4 7,8 19,3 1022,3 1020,9 1024,2 75 56 90 0,0 8,6 15,6
21.10.2018 7,7 4,8 11,9 1023,5 1022,5 1024,3 80 68 87 1,0 6,1 17,2
22.10.2018 9,6 7,3 15,8 1023,0 1021,6 1024,9 76 57 84 0,0 2,4 9,3
23.10.2018 13,5 7,4 16,9 1015,2 1010,9 1023,1 58 44 84 0,0 9,1 21,9
24.10.2018 9,3 7,8 13,7 1011,9 1006,6 1015,8 77 62 89 5,6 13,7 27,4
25.10.2018 13,9 7,8 19,5 1012,1 1010,5 1016,1 68 52 89 0,8 9,6 21,2
26.10.2018 12,1 8,2 18,5 1007,8 1004,6 1012,8 77 60 85 0,0 4,6 13,8
27.10.2018 8,6 7,0 10,5 1005,9 1003,9 1007,2 89 83 90 13,2 1,9 4,3
28.10.2018 12,6 7,6 14,3 1003,2 1002,1 1006,9 88 86 90 3,8 5,6 13,7
29.10.2018 18,1 13,9 19,9 1001,4 997,7 1004,1 76 67 88 0,0 14,4 21,7
30.10.2018 14,2 11,9 19,3 1006,7 997,0 1012,7 64 47 80 2,6 12,7 26,9
31.10.2018 13,4 8,0 18,7 1017,8 1012,7 1019,2 66 54 82 0,0 8,4 19,3
avg. 14,1 1016,2 72   ---
  Summe Regen: 29,2  
 
Min-Datum 21.10.2018 30.10.2018 14.10.2018 --- ---
Min-Zeit 07:14 03:26 13:48 --- ---
Minimum 4,8 997,0 38 --- ---
 

Max-Datum

09.10.2018 13.10.2018 09.10.2018 27.10.2018 24.10.2018
Max-Zeit 14:44 09:46 07:50 13:10 18:18
Maximum 25,1 1025,9 90 13,2 27,4
 

 

  Letztes Jahr
gleiches Monat
Eistage max < 0°C 0 0
Frosttage min < 0°C 0 0
Sommertage max >=25°C 2 0
Heiße Tage max >=30°C 0 0

 

<<< nach oben >>>